createdAt,value
2017-01-29T00:00:29.011Z,0
2017-01-29T00:01:28.866Z,0
2017-01-29T00:02:28.483Z,0
2017-01-29T00:03:28.952Z,0
2017-01-29T00:04:28.540Z,0
2017-01-29T00:05:28.996Z,0
2017-01-29T00:06:29.019Z,0
2017-01-29T00:07:29.010Z,0
2017-01-29T00:08:28.568Z,0
2017-01-29T00:09:28.970Z,0
2017-01-29T00:10:29.007Z,0
2017-01-29T00:11:28.635Z,0
2017-01-29T00:12:28.645Z,0
2017-01-29T00:13:28.994Z,0
2017-01-29T00:14:28.600Z,0
2017-01-29T00:15:28.607Z,0
2017-01-29T00:16:29.014Z,0
2017-01-29T00:17:28.565Z,0
2017-01-29T00:18:29.024Z,0
2017-01-29T00:19:28.981Z,0
2017-01-29T00:20:28.299Z,0
2017-01-29T00:21:28.647Z,0
2017-01-29T00:22:28.598Z,0
2017-01-29T00:23:29.055Z,0
2017-01-29T00:24:28.610Z,0
2017-01-29T00:25:29.072Z,0
2017-01-29T00:26:28.976Z,0
2017-01-29T00:27:29.077Z,0
2017-01-29T00:28:29.031Z,0
2017-01-29T00:29:29.144Z,0
2017-01-29T00:30:29.049Z,0
2017-01-29T00:31:29.047Z,0
2017-01-29T00:32:29.159Z,0
2017-01-29T00:33:28.713Z,0
2017-01-29T00:34:28.403Z,0
2017-01-29T00:35:28.728Z,0
2017-01-29T00:36:29.181Z,0
2017-01-29T00:37:29.140Z,0
2017-01-29T00:38:29.195Z,0
2017-01-29T00:39:28.802Z,0
2017-01-29T00:40:28.762Z,0
2017-01-29T00:41:29.213Z,0
2017-01-29T00:42:29.165Z,0
2017-01-29T00:43:28.726Z,0
2017-01-29T00:44:29.227Z,0
2017-01-29T00:45:29.138Z,0
2017-01-29T00:46:28.795Z,0
2017-01-29T00:47:28.856Z,0
2017-01-29T00:48:29.297Z,0
2017-01-29T00:49:29.161Z,0
2017-01-29T00:50:28.769Z,0
2017-01-29T00:51:28.829Z,0
2017-01-29T00:52:29.330Z,0
2017-01-29T00:53:29.230Z,0
2017-01-29T00:54:28.498Z,0
2017-01-29T00:55:29.248Z,0
2017-01-29T00:56:28.804Z,0
2017-01-29T00:57:29.304Z,0
2017-01-29T00:58:28.824Z,0
2017-01-29T00:59:28.822Z,0
2017-01-29T01:00:29.227Z,0
2017-01-29T01:01:29.283Z,0
2017-01-29T01:02:29.232Z,0
2017-01-29T01:03:29.291Z,0
2017-01-29T01:04:28.604Z,0
2017-01-29T01:05:29.310Z,0
2017-01-29T01:06:28.484Z,0
2017-01-29T01:07:28.923Z,0
2017-01-29T01:08:28.880Z,0
2017-01-29T01:09:29.377Z,0
2017-01-29T01:10:29.343Z,0
2017-01-29T01:11:29.284Z,0
2017-01-29T01:12:28.554Z,0
2017-01-29T01:13:29.105Z,0
2017-01-29T01:14:29.459Z,0
2017-01-29T01:15:28.920Z,0
2017-01-29T01:16:28.925Z,0
2017-01-29T01:17:29.075Z,0
2017-01-29T01:18:28.985Z,0
2017-01-29T01:19:28.991Z,0
2017-01-29T01:20:29.489Z,0
2017-01-29T01:21:29.350Z,0
2017-01-29T01:22:29.008Z,0
2017-01-29T01:23:29.463Z,0
2017-01-29T01:24:29.361Z,0
2017-01-29T01:25:29.023Z,0
2017-01-29T01:26:29.429Z,0
2017-01-29T01:27:29.437Z,0
2017-01-29T01:28:29.391Z,0
2017-01-29T01:29:29.444Z,0
2017-01-29T01:30:29.094Z,0
2017-01-29T01:31:28.737Z,0
2017-01-29T01:32:29.462Z,0
2017-01-29T01:33:29.078Z,0
2017-01-29T01:34:29.480Z,0
2017-01-29T01:35:29.428Z,0
2017-01-29T01:36:29.088Z,0
2017-01-29T01:37:29.054Z,0
2017-01-29T01:38:29.205Z,0
2017-01-29T01:39:29.556Z,0
2017-01-29T01:40:29.461Z,0
2017-01-29T01:41:29.516Z,0
2017-01-29T01:42:29.125Z,0
2017-01-29T01:43:29.526Z,0
2017-01-29T01:44:29.538Z,0
2017-01-29T01:45:29.589Z,0
2017-01-29T01:46:29.504Z,0
2017-01-29T01:47:29.222Z,0
2017-01-29T01:48:29.216Z,0
2017-01-29T01:49:29.521Z,0
2017-01-29T01:50:29.132Z,0
2017-01-29T01:51:29.577Z,0
2017-01-29T01:52:29.191Z,0
2017-01-29T01:53:29.589Z,0
2017-01-29T01:54:29.543Z,0
2017-01-29T01:55:29.168Z,0
2017-01-29T01:56:29.175Z,0
2017-01-29T01:57:29.267Z,0
2017-01-29T01:58:29.666Z,0
2017-01-29T01:59:29.680Z,0
2017-01-29T02:00:43.800Z,0
2017-01-29T02:01:29.195Z,0
2017-01-29T02:02:29.952Z,0
2017-01-29T02:03:29.211Z,0
2017-01-29T02:04:29.657Z,0
2017-01-29T02:05:29.266Z,0
2017-01-29T02:06:29.667Z,0
2017-01-29T02:07:29.231Z,0
2017-01-29T02:08:29.335Z,0
2017-01-29T02:09:29.688Z,0
2017-01-29T02:10:28.901Z,0
2017-01-29T02:11:29.803Z,0
2017-01-29T02:12:29.654Z,0
2017-01-29T02:13:58.624Z,0
2017-01-29T02:14:29.767Z,0
2017-01-29T02:15:29.697Z,0
2017-01-29T02:16:29.679Z,0
2017-01-29T02:17:28.552Z,0
2017-01-29T02:18:29.697Z,0
2017-01-29T02:19:29.696Z,0
2017-01-29T02:20:29.755Z,0
2017-01-29T02:21:29.709Z,0
2017-01-29T02:22:29.813Z,0
2017-01-29T02:23:29.821Z,0
2017-01-29T02:24:29.779Z,0
2017-01-29T02:25:29.789Z,0
2017-01-29T02:26:29.445Z,0
2017-01-29T02:27:29.792Z,0
2017-01-29T02:28:29.356Z,0
2017-01-29T02:29:29.810Z,0
2017-01-29T02:30:29.428Z,0
2017-01-29T02:31:29.872Z,0
2017-01-29T02:32:29.876Z,0
2017-01-29T02:33:29.384Z,0
2017-01-29T02:34:29.842Z,0
2017-01-29T02:35:29.869Z,0
2017-01-29T02:36:29.480Z,0
2017-01-29T02:37:29.553Z,0
2017-01-29T02:38:29.810Z,0
2017-01-29T02:39:29.872Z,0
2017-01-29T02:40:29.427Z,0
2017-01-29T02:41:29.882Z,0
2017-01-29T02:42:29.488Z,0
2017-01-29T02:43:29.839Z,0
2017-01-29T02:44:29.899Z,0
2017-01-29T02:45:29.850Z,0
2017-01-29T02:46:29.908Z,0
2017-01-29T02:47:29.575Z,0
2017-01-29T02:48:29.974Z,0
2017-01-29T02:49:29.882Z,0
2017-01-29T02:50:29.887Z,0
2017-01-29T02:51:29.901Z,0
2017-01-29T02:52:29.556Z,0
2017-01-29T02:53:29.124Z,0
2017-01-29T02:54:30.033Z,0
2017-01-29T02:55:29.521Z,0
2017-01-29T02:56:29.970Z,0
2017-01-29T02:57:30.076Z,0
2017-01-29T02:58:29.983Z,0
2017-01-29T02:59:29.939Z,0
2017-01-29T03:00:29.582Z,0
2017-01-29T03:01:30.008Z,0
2017-01-29T03:02:30.029Z,0
2017-01-29T03:03:29.978Z,0
2017-01-29T03:04:29.580Z,0
2017-01-29T03:05:29.729Z,0
2017-01-29T03:06:30.035Z,0
2017-01-29T03:07:29.896Z,0
2017-01-29T03:08:29.255Z,0
2017-01-29T03:09:30.050Z,0
2017-01-29T03:10:29.216Z,0
2017-01-29T03:11:30.115Z,0
2017-01-29T03:12:30.016Z,0
2017-01-29T03:13:44.581Z,0
2017-01-29T03:14:30.125Z,0
2017-01-29T03:15:30.086Z,0
2017-01-29T03:16:30.039Z,0
2017-01-29T03:17:30.157Z,0
2017-01-29T03:18:30.155Z,0
2017-01-29T03:19:30.362Z,0
2017-01-29T03:20:29.372Z,0
2017-01-29T03:21:29.687Z,0
2017-01-29T03:22:30.087Z,0
2017-01-29T03:23:30.176Z,0
2017-01-29T03:24:30.141Z,0
2017-01-29T03:25:29.697Z,0
2017-01-29T03:26:30.261Z,0
2017-01-29T03:27:30.141Z,0
2017-01-29T03:28:30.160Z,0
2017-01-29T03:29:29.830Z,0
2017-01-29T03:30:30.129Z,0
2017-01-29T03:31:30.126Z,0
2017-01-29T03:32:29.737Z,0
2017-01-29T03:33:29.782Z,0
2017-01-29T03:34:30.164Z,0
2017-01-29T03:35:30.252Z,0
2017-01-29T03:36:30.159Z,0
2017-01-29T03:37:30.175Z,0
2017-01-29T03:38:29.825Z,0
2017-01-29T03:39:29.786Z,0
2017-01-29T03:40:30.232Z,0
2017-01-29T03:41:30.192Z,0
2017-01-29T03:42:30.196Z,0
2017-01-29T03:43:44.730Z,0
2017-01-29T03:44:30.360Z,0
2017-01-29T03:45:30.215Z,0
2017-01-29T03:46:29.480Z,0
2017-01-29T03:47:30.350Z,0
2017-01-29T03:48:29.837Z,0
2017-01-29T03:49:29.894Z,0
2017-01-29T03:50:29.845Z,0
2017-01-29T03:51:30.304Z,0
2017-01-29T03:52:29.542Z,0
2017-01-29T03:53:29.477Z,0
2017-01-29T03:54:29.933Z,0
2017-01-29T03:55:30.574Z,0
2017-01-29T03:56:29.934Z,0
2017-01-29T03:57:30.284Z,0
2017-01-29T03:58:30.389Z,0
2017-01-29T03:59:29.902Z,0
2017-01-29T04:00:30.378Z,0
2017-01-29T04:01:29.521Z,0
2017-01-29T04:02:30.416Z,0
2017-01-29T04:03:30.040Z,0
2017-01-29T04:04:30.346Z,0
2017-01-29T04:05:29.642Z,0
2017-01-29T04:06:30.098Z,0
2017-01-29T04:07:30.405Z,0
2017-01-29T04:08:30.351Z,0
2017-01-29T04:09:30.759Z,0
2017-01-29T04:10:30.116Z,0
2017-01-29T04:11:30.426Z,0
2017-01-29T04:12:30.030Z,0
2017-01-29T04:13:47.664Z,0
2017-01-29T04:14:30.442Z,0
2017-01-29T04:15:30.032Z,0
2017-01-29T04:16:29.608Z,0
2017-01-29T04:17:30.060Z,0
2017-01-29T04:18:30.458Z,0
2017-01-29T04:19:30.032Z,0
2017-01-29T04:20:29.685Z,0
2017-01-29T04:21:30.134Z,0
2017-01-29T04:22:30.092Z,0
2017-01-29T04:23:30.442Z,0
2017-01-29T04:24:30.501Z,0
2017-01-29T04:25:30.511Z,0
2017-01-29T04:26:30.583Z,0
2017-01-29T04:27:30.477Z,0
2017-01-29T04:28:30.175Z,0
2017-01-29T04:29:30.133Z,0
2017-01-29T04:30:30.551Z,0
2017-01-29T04:31:30.596Z,0
2017-01-29T04:32:30.545Z,0
2017-01-29T04:33:30.583Z,0
2017-01-29T04:34:30.207Z,0
2017-01-29T04:35:30.268Z,0
2017-01-29T04:36:30.514Z,0
2017-01-29T04:37:30.527Z,0
2017-01-29T04:38:30.531Z,0
2017-01-29T04:39:30.636Z,0
2017-01-29T04:40:30.539Z,0
2017-01-29T04:41:30.600Z,0
2017-01-29T04:42:29.762Z,0
2017-01-29T04:43:45.042Z,0
2017-01-29T04:44:30.722Z,0
2017-01-29T04:45:30.175Z,0
2017-01-29T04:46:30.677Z,0
2017-01-29T04:47:30.589Z,0
2017-01-29T04:48:30.651Z,0
2017-01-29T04:49:30.203Z,0
2017-01-29T04:50:30.603Z,0
2017-01-29T04:51:30.661Z,0
2017-01-29T04:52:30.233Z,0
2017-01-29T04:53:30.284Z,0
2017-01-29T04:54:29.886Z,0
2017-01-29T04:55:30.241Z,0
2017-01-29T04:56:30.688Z,0
2017-01-29T04:57:30.255Z,0
2017-01-29T04:58:29.961Z,0
2017-01-29T04:59:30.712Z,0
2017-01-29T05:00:30.367Z,0
2017-01-29T05:01:30.718Z,0
2017-01-29T05:02:30.278Z,0
2017-01-29T05:03:30.784Z,0
2017-01-29T05:04:30.336Z,0
2017-01-29T05:05:30.369Z,0
2017-01-29T05:06:30.393Z,0
2017-01-29T05:07:30.756Z,0
2017-01-29T05:08:30.762Z,0
2017-01-29T05:09:30.717Z,0
2017-01-29T05:10:30.382Z,0
2017-01-29T05:11:30.330Z,0
2017-01-29T05:12:30.784Z,0
2017-01-29T05:13:45.325Z,0
2017-01-29T05:14:30.020Z,0
2017-01-29T05:15:30.912Z,0
2017-01-29T05:16:30.522Z,0
2017-01-29T05:17:30.972Z,0
2017-01-29T05:18:30.886Z,0
2017-01-29T05:19:30.851Z,0
2017-01-29T05:20:30.833Z,0
2017-01-29T05:21:30.445Z,0
2017-01-29T05:22:30.862Z,0
2017-01-29T05:23:30.851Z,0
2017-01-29T05:24:30.859Z,0
2017-01-29T05:25:31.008Z,0
2017-01-29T05:26:30.470Z,0
2017-01-29T05:27:30.879Z,0
2017-01-29T05:28:30.538Z,0
2017-01-29T05:29:30.538Z,0
2017-01-29T05:30:30.733Z,0
2017-01-29T05:31:30.951Z,0
2017-01-29T05:32:30.460Z,0
2017-01-29T05:33:30.520Z,0
2017-01-29T05:34:30.476Z,0
2017-01-29T05:35:30.482Z,0
2017-01-29T05:36:31.327Z,0
2017-01-29T05:37:30.146Z,0
2017-01-29T05:38:30.923Z,0
2017-01-29T05:39:31.002Z,0
2017-01-29T05:40:30.619Z,0
2017-01-29T05:41:30.563Z,0
2017-01-29T05:42:30.970Z,0
2017-01-29T05:43:45.114Z,0
2017-01-29T05:44:30.182Z,0
2017-01-29T05:45:30.592Z,0
2017-01-29T05:46:30.204Z,0
2017-01-29T05:47:31.052Z,0
2017-01-29T05:48:30.160Z,0
2017-01-29T05:49:31.011Z,0
2017-01-29T05:50:30.130Z,0
2017-01-29T05:51:31.022Z,0
2017-01-29T05:52:31.029Z,0
2017-01-29T05:53:30.643Z,0
2017-01-29T05:54:31.195Z,0
2017-01-29T05:55:30.204Z,0
2017-01-29T05:56:30.606Z,0
2017-01-29T05:57:31.058Z,0
2017-01-29T05:58:30.669Z,0
2017-01-29T05:59:30.770Z,0
2017-01-29T06:00:31.084Z,0
2017-01-29T06:01:31.030Z,0
2017-01-29T06:02:31.193Z,0
2017-01-29T06:03:31.098Z,0
2017-01-29T06:04:31.097Z,0
2017-01-29T06:05:31.108Z,0
2017-01-29T06:06:30.666Z,0
2017-01-29T06:07:30.721Z,0
2017-01-29T06:08:31.222Z,0
2017-01-29T06:09:31.082Z,0
2017-01-29T06:10:31.082Z,0
2017-01-29T06:11:30.745Z,0
2017-01-29T06:12:30.304Z,0
2017-01-29T06:13:30.754Z,0
2017-01-29T06:14:30.909Z,0
2017-01-29T06:15:30.771Z,0
2017-01-29T06:16:30.787Z,0
2017-01-29T06:17:31.278Z,0
2017-01-29T06:18:30.837Z,0
2017-01-29T06:19:30.396Z,0
2017-01-29T06:20:31.144Z,0
2017-01-29T06:21:31.204Z,0
2017-01-29T06:22:30.816Z,0
2017-01-29T06:23:30.721Z,0
2017-01-29T06:24:31.168Z,0
2017-01-29T06:25:31.227Z,0
2017-01-29T06:26:31.479Z,0
2017-01-29T06:27:31.339Z,0
2017-01-29T06:28:31.185Z,0
2017-01-29T06:29:31.197Z,0
2017-01-29T06:30:31.207Z,0
2017-01-29T06:31:30.964Z,0
2017-01-29T06:32:30.522Z,0
2017-01-29T06:33:30.923Z,0
2017-01-29T06:34:31.226Z,0
2017-01-29T06:35:30.832Z,0
2017-01-29T06:36:30.894Z,0
2017-01-29T06:37:31.347Z,0
2017-01-29T06:38:31.353Z,0
2017-01-29T06:39:31.254Z,0
2017-01-29T06:40:31.016Z,0
2017-01-29T06:41:31.017Z,0
2017-01-29T06:42:31.875Z,0
2017-01-29T06:43:30.582Z,0
2017-01-29T06:44:30.890Z,0
2017-01-29T06:45:31.338Z,0
2017-01-29T06:46:31.347Z,0
2017-01-29T06:47:31.352Z,0
2017-01-29T06:48:31.008Z,0
2017-01-29T06:49:31.413Z,0
2017-01-29T06:50:30.974Z,0
2017-01-29T06:51:31.423Z,0
2017-01-29T06:52:31.062Z,0
2017-01-29T06:53:31.436Z,0
2017-01-29T06:54:30.994Z,0
2017-01-29T06:55:31.351Z,0
2017-01-29T06:56:31.403Z,0
2017-01-29T06:57:31.464Z,0
2017-01-29T06:58:31.023Z,0
2017-01-29T06:59:30.973Z,0
2017-01-29T07:00:31.078Z,0
2017-01-29T07:01:31.431Z,0
2017-01-29T07:02:31.492Z,0
2017-01-29T07:03:30.654Z,0
2017-01-29T07:04:31.400Z,0
2017-01-29T07:05:31.009Z,0
2017-01-29T07:06:31.485Z,0
2017-01-29T07:07:30.676Z,0
2017-01-29T07:08:31.519Z,0
2017-01-29T07:09:31.429Z,0
2017-01-29T07:10:31.436Z,0
2017-01-29T07:11:31.042Z,0
2017-01-29T07:12:31.248Z,0
2017-01-29T07:13:31.495Z,0
2017-01-29T07:14:31.510Z,0
2017-01-29T07:15:31.509Z,0
2017-01-29T07:16:31.469Z,0
2017-01-29T07:17:31.373Z,0
2017-01-29T07:18:31.188Z,0
2017-01-29T07:19:30.720Z,0
2017-01-29T07:20:31.595Z,0
2017-01-29T07:21:31.497Z,0
2017-01-29T07:22:31.552Z,0
2017-01-29T07:23:31.514Z,0
2017-01-29T07:24:31.319Z,0
2017-01-29T07:25:31.525Z,0
2017-01-29T07:26:31.579Z,0
2017-01-29T07:27:31.633Z,0
2017-01-29T07:28:31.592Z,0
2017-01-29T07:29:31.547Z,0
2017-01-29T07:30:31.700Z,0
2017-01-29T07:31:31.562Z,0
2017-01-29T07:32:31.274Z,0
2017-01-29T07:33:31.616Z,0
2017-01-29T07:34:30.488Z,0
2017-01-29T07:35:31.737Z,0
2017-01-29T07:36:31.241Z,0
2017-01-29T07:37:31.601Z,0
2017-01-29T07:38:31.650Z,0
2017-01-29T07:39:31.709Z,0
2017-01-29T07:40:31.710Z,0
2017-01-29T07:41:31.327Z,0
2017-01-29T07:42:31.674Z,0
2017-01-29T07:43:31.684Z,0
2017-01-29T07:44:31.691Z,0
2017-01-29T07:45:31.245Z,0
2017-01-29T07:46:32.102Z,0
2017-01-29T07:47:31.705Z,0
2017-01-29T07:48:31.859Z,0
2017-01-29T07:49:31.274Z,0
2017-01-29T07:50:31.770Z,0
2017-01-29T07:51:31.734Z,0
2017-01-29T07:52:31.692Z,0
2017-01-29T07:53:31.245Z,0
2017-01-29T07:54:31.743Z,0
2017-01-29T07:55:31.699Z,0
2017-01-29T07:56:31.309Z,0
2017-01-29T07:57:31.317Z,0
2017-01-29T07:58:31.870Z,0
2017-01-29T07:59:30.933Z,0
2017-01-29T08:00:31.728Z,0
2017-01-29T08:01:31.525Z,0
2017-01-29T08:02:31.453Z,0
2017-01-29T08:03:31.855Z,0
2017-01-29T08:04:31.803Z,0
2017-01-29T08:05:31.863Z,0
2017-01-29T08:06:31.768Z,0
2017-01-29T08:07:31.772Z,0
2017-01-29T08:08:31.880Z,0
2017-01-29T08:09:31.490Z,0
2017-01-29T08:10:31.841Z,0
2017-01-29T08:11:31.451Z,0
2017-01-29T08:12:31.856Z,0
2017-01-29T08:13:31.911Z,0
2017-01-29T08:14:31.812Z,0
2017-01-29T08:15:31.474Z,0
2017-01-29T08:16:31.474Z,0
2017-01-29T08:17:31.878Z,0
2017-01-29T08:18:31.491Z,0
2017-01-29T08:19:31.236Z,0
2017-01-29T08:20:31.862Z,0
2017-01-29T08:21:31.910Z,0
2017-01-29T08:22:32.041Z,0
2017-01-29T08:23:31.522Z,0
2017-01-29T08:24:32.423Z,5
2017-01-29T08:25:31.934Z,5
2017-01-29T08:26:31.938Z,5
2017-01-29T08:27:31.543Z,5
2017-01-29T08:28:31.649Z,10
2017-01-29T08:29:32.052Z,10
2017-01-29T08:30:31.961Z,10
2017-01-29T08:31:31.818Z,10
2017-01-29T08:32:31.921Z,10
2017-01-29T08:33:31.681Z,10
2017-01-29T08:34:32.039Z,10
2017-01-29T08:35:31.960Z,10
2017-01-29T08:36:31.647Z,15
2017-01-29T08:37:31.999Z,15
2017-01-29T08:38:31.610Z,10
2017-01-29T08:39:32.012Z,5
2017-01-29T08:40:32.067Z,5
2017-01-29T08:41:31.971Z,5
2017-01-29T08:42:32.288Z,5
2017-01-29T08:43:31.295Z,5
2017-01-29T08:44:31.252Z,5
2017-01-29T08:45:32.058Z,5
2017-01-29T08:46:31.604Z,5
2017-01-29T08:47:31.767Z,5
2017-01-29T08:48:32.019Z,5
2017-01-29T08:49:31.328Z,5
2017-01-29T08:50:32.232Z,0
2017-01-29T08:51:32.085Z,0
2017-01-29T08:52:32.193Z,0
2017-01-29T08:53:32.451Z,5
2017-01-29T08:54:32.154Z,5
2017-01-29T08:55:32.054Z,5
2017-01-29T08:56:31.719Z,0
2017-01-29T08:57:32.070Z,0
2017-01-29T08:58:32.126Z,0
2017-01-29T08:59:31.780Z,0
2017-01-29T09:00:32.088Z,0
2017-01-29T09:01:31.747Z,0
2017-01-29T09:02:31.892Z,0
2017-01-29T09:03:31.865Z,0
2017-01-29T09:04:31.816Z,0
2017-01-29T09:05:32.161Z,0
2017-01-29T09:06:32.121Z,5
2017-01-29T09:07:31.389Z,5
2017-01-29T09:08:31.790Z,5
2017-01-29T09:09:31.867Z,5
2017-01-29T09:10:32.199Z,0
2017-01-29T09:11:32.151Z,0
2017-01-29T09:12:32.155Z,0
2017-01-29T09:13:32.317Z,0
2017-01-29T09:14:32.275Z,0
2017-01-29T09:15:31.860Z,0
2017-01-29T09:16:32.483Z,5
2017-01-29T09:17:32.140Z,5
2017-01-29T09:18:32.245Z,5
2017-01-29T09:19:31.452Z,5
2017-01-29T09:20:32.253Z,5
2017-01-29T09:21:32.263Z,5
2017-01-29T09:22:32.269Z,5
2017-01-29T09:23:31.928Z,5
2017-01-29T09:24:31.929Z,5
2017-01-29T09:25:31.842Z,5
2017-01-29T09:26:31.895Z,5
2017-01-29T09:27:32.350Z,5
2017-01-29T09:28:31.516Z,5
2017-01-29T09:29:31.967Z,5
2017-01-29T09:30:31.524Z,5
2017-01-29T09:31:31.882Z,5
2017-01-29T09:32:32.383Z,5
2017-01-29T09:33:32.387Z,5
2017-01-29T09:34:32.343Z,5
2017-01-29T09:35:31.905Z,5
2017-01-29T09:36:32.357Z,5
2017-01-29T09:37:32.014Z,5
2017-01-29T09:38:31.926Z,5
2017-01-29T09:39:32.429Z,5
2017-01-29T09:40:32.325Z,5
2017-01-29T09:41:31.940Z,5
2017-01-29T09:42:32.386Z,5
2017-01-29T09:43:32.445Z,5
2017-01-29T09:44:32.009Z,5
2017-01-29T09:45:32.520Z,5
2017-01-29T09:46:32.400Z,5
2017-01-29T09:47:32.422Z,5
2017-01-29T09:48:31.980Z,5
2017-01-29T09:49:32.037Z,5
2017-01-29T09:50:32.542Z,10
2017-01-29T09:51:31.995Z,10
2017-01-29T09:52:32.157Z,10
2017-01-29T09:53:32.501Z,10
2017-01-29T09:54:32.515Z,15
2017-01-29T09:55:32.071Z,10
2017-01-29T09:56:32.028Z,10
2017-01-29T09:57:32.435Z,10
2017-01-29T09:58:32.041Z,10
2017-01-29T09:59:31.797Z,15
2017-01-29T10:00:32.090Z,20
2017-01-29T10:01:32.606Z,30
2017-01-29T10:02:32.565Z,30
2017-01-29T10:03:32.168Z,30
2017-01-29T10:04:32.081Z,40
2017-01-29T10:05:32.532Z,35
2017-01-29T10:06:32.151Z,30
2017-01-29T10:07:32.548Z,25
2017-01-29T10:08:32.256Z,25
2017-01-29T10:09:32.506Z,30
2017-01-29T10:10:32.566Z,35
2017-01-29T10:11:32.525Z,25
2017-01-29T10:12:32.524Z,20
2017-01-29T10:13:32.143Z,20
2017-01-29T10:14:32.838Z,20
2017-01-29T10:15:32.196Z,20
2017-01-29T10:16:32.549Z,25
2017-01-29T10:17:32.632Z,30
2017-01-29T10:18:32.616Z,30
2017-01-29T10:19:32.223Z,30
2017-01-29T10:20:32.227Z,35
2017-01-29T10:21:32.187Z,40
2017-01-29T10:22:32.194Z,40
2017-01-29T10:23:32.641Z,40
2017-01-29T10:24:32.654Z,35
2017-01-29T10:25:32.607Z,35
2017-01-29T10:26:32.608Z,30
2017-01-29T10:27:32.643Z,30
2017-01-29T10:28:32.629Z,30
2017-01-29T10:29:32.281Z,30
2017-01-29T10:30:32.287Z,30
2017-01-29T10:31:32.741Z,30
2017-01-29T10:32:32.644Z,30
2017-01-29T10:33:32.650Z,30
2017-01-29T10:34:32.711Z,30
2017-01-29T10:35:32.718Z,35
2017-01-29T10:36:32.672Z,35
2017-01-29T10:37:32.286Z,40
2017-01-29T10:38:32.290Z,40
2017-01-29T10:39:32.342Z,40
2017-01-29T10:40:32.706Z,50
2017-01-29T10:41:32.308Z,50
2017-01-29T10:42:32.467Z,45
2017-01-29T10:43:32.481Z,45
2017-01-29T10:44:32.724Z,50
2017-01-29T10:45:32.331Z,45
2017-01-29T10:46:32.738Z,45
2017-01-29T10:47:32.795Z,45
2017-01-29T10:48:32.753Z,50
2017-01-29T10:49:32.763Z,60
2017-01-29T10:50:32.416Z,55
2017-01-29T10:51:32.419Z,55
2017-01-29T10:52:32.833Z,50
2017-01-29T10:53:32.882Z,55
2017-01-29T10:54:32.044Z,45
2017-01-29T10:55:32.793Z,45
2017-01-29T10:56:32.803Z,50
2017-01-29T10:57:32.410Z,50
2017-01-29T10:58:32.422Z,40
2017-01-29T10:59:32.868Z,35
2017-01-29T11:00:32.475Z,35
2017-01-29T11:01:32.835Z,35
2017-01-29T11:02:32.837Z,30
2017-01-29T11:03:32.841Z,30
2017-01-29T11:04:33.000Z,35
2017-01-29T11:05:32.954Z,40
2017-01-29T11:06:32.112Z,45
2017-01-29T11:07:32.522Z,45
2017-01-29T11:08:32.875Z,45
2017-01-29T11:09:32.880Z,45
2017-01-29T11:10:32.484Z,45
2017-01-29T11:11:32.994Z,50
2017-01-29T11:12:32.947Z,55
2017-01-29T11:13:32.962Z,50
2017-01-29T11:14:33.072Z,50
2017-01-29T11:15:32.920Z,50
2017-01-29T11:16:32.534Z,50
2017-01-29T11:17:32.990Z,50
2017-01-29T11:18:32.587Z,50
2017-01-29T11:19:32.599Z,55
2017-01-29T11:20:32.996Z,55
2017-01-29T11:21:33.011Z,55
2017-01-29T11:22:32.216Z,55
2017-01-29T11:23:32.971Z,55
2017-01-29T11:24:33.052Z,55
2017-01-29T11:25:32.984Z,55
2017-01-29T11:26:32.986Z,55
2017-01-29T11:27:32.994Z,55
2017-01-29T11:28:32.995Z,55
2017-01-29T11:29:33.059Z,60
2017-01-29T11:30:32.615Z,60
2017-01-29T11:31:33.076Z,60
2017-01-29T11:32:33.049Z,60
2017-01-29T11:33:31.895Z,60
2017-01-29T11:34:33.088Z,55
2017-01-29T11:35:32.300Z,55
2017-01-29T11:36:32.648Z,55
2017-01-29T11:37:33.064Z,55
2017-01-29T11:38:33.131Z,55
2017-01-29T11:39:32.336Z,55
2017-01-29T11:40:33.173Z,55
2017-01-29T11:41:32.767Z,55
2017-01-29T11:42:33.088Z,55
2017-01-29T11:43:33.147Z,55
2017-01-29T11:44:33.250Z,55
2017-01-29T11:45:33.154Z,55
2017-01-29T11:46:32.814Z,55
2017-01-29T11:47:33.120Z,55
2017-01-29T11:48:33.231Z,55
2017-01-29T11:49:33.127Z,55
2017-01-29T11:50:33.258Z,50
2017-01-29T11:51:33.190Z,50
2017-01-29T11:52:32.807Z,50
2017-01-29T11:53:33.503Z,55
2017-01-29T11:54:33.157Z,55
2017-01-29T11:55:33.169Z,55
2017-01-29T11:56:32.876Z,55
2017-01-29T11:57:33.233Z,60
2017-01-29T11:58:33.193Z,55
2017-01-29T11:59:32.461Z,55
2017-01-29T12:00:32.798Z,55
2017-01-29T12:01:33.306Z,55
2017-01-29T12:02:33.263Z,55
2017-01-29T12:03:32.475Z,55
2017-01-29T12:04:32.932Z,55
2017-01-29T12:05:32.889Z,50
2017-01-29T12:06:33.295Z,50
2017-01-29T12:07:33.238Z,50
2017-01-29T12:08:32.507Z,50
2017-01-29T12:09:33.257Z,50
2017-01-29T12:10:33.316Z,50
2017-01-29T12:11:33.322Z,55
2017-01-29T12:12:33.273Z,55
2017-01-29T12:13:33.332Z,55
2017-01-29T12:14:33.287Z,55
2017-01-29T12:15:33.339Z,50
2017-01-29T12:16:33.299Z,50
2017-01-29T12:17:33.356Z,50
2017-01-29T12:18:33.017Z,50
2017-01-29T12:19:32.580Z,50
2017-01-29T12:20:32.136Z,50
2017-01-29T12:21:33.347Z,50
2017-01-29T12:22:33.042Z,45
2017-01-29T12:23:33.355Z,45
2017-01-29T12:24:33.348Z,45
2017-01-29T12:25:33.709Z,45
2017-01-29T12:26:33.012Z,50
2017-01-29T12:27:32.973Z,45
2017-01-29T12:28:32.984Z,45
2017-01-29T12:29:33.382Z,45
2017-01-29T12:30:33.492Z,45
2017-01-29T12:31:33.391Z,45
2017-01-29T12:32:33.451Z,45
2017-01-29T12:33:33.410Z,45
2017-01-29T12:34:33.514Z,45
2017-01-29T12:35:33.434Z,40
2017-01-29T12:36:33.078Z,40
2017-01-29T12:37:33.135Z,40
2017-01-29T12:38:33.538Z,40
2017-01-29T12:39:33.493Z,40
2017-01-29T12:40:33.598Z,40
2017-01-29T12:41:33.104Z,40
2017-01-29T12:42:33.460Z,40
2017-01-29T12:43:33.465Z,40
2017-01-29T12:44:33.523Z,40
2017-01-29T12:45:33.477Z,45
2017-01-29T12:46:33.090Z,45
2017-01-29T12:47:33.495Z,45
2017-01-29T12:48:33.550Z,45
2017-01-29T12:49:33.553Z,45
2017-01-29T12:50:33.504Z,45
2017-01-29T12:51:33.117Z,45
2017-01-29T12:52:33.567Z,45
2017-01-29T12:53:33.625Z,40
2017-01-29T12:54:33.531Z,40
2017-01-29T12:55:33.635Z,40
2017-01-29T12:56:33.547Z,40
2017-01-29T12:57:33.646Z,40
2017-01-29T12:58:33.660Z,40
2017-01-29T12:59:33.313Z,40
2017-01-29T13:00:33.570Z,40
2017-01-29T13:01:33.232Z,35
2017-01-29T13:02:33.287Z,35
2017-01-29T13:03:33.635Z,35
2017-01-29T13:04:33.692Z,35
2017-01-29T13:05:33.597Z,35
2017-01-29T13:06:33.256Z,35
2017-01-29T13:07:33.609Z,30
2017-01-29T13:08:33.672Z,30
2017-01-29T13:09:33.674Z,30
2017-01-29T13:10:33.687Z,25
2017-01-29T13:11:33.394Z,25
2017-01-29T13:12:33.693Z,30
2017-01-29T13:13:33.703Z,30
2017-01-29T13:14:33.753Z,30
2017-01-29T13:15:33.411Z,25
2017-01-29T13:16:33.674Z,25
2017-01-29T13:17:33.719Z,30
2017-01-29T13:18:33.780Z,25
2017-01-29T13:19:33.783Z,30
2017-01-29T13:20:33.340Z,30
2017-01-29T13:21:33.703Z,30
2017-01-29T13:22:33.706Z,35
2017-01-29T13:23:33.712Z,35
2017-01-29T13:24:32.951Z,35
2017-01-29T13:25:33.728Z,40
2017-01-29T13:26:33.726Z,40
2017-01-29T13:27:33.538Z,40
2017-01-29T13:28:33.387Z,40
2017-01-29T13:29:33.911Z,40
2017-01-29T13:30:33.357Z,45
2017-01-29T13:31:33.461Z,45
2017-01-29T13:32:33.620Z,45
2017-01-29T13:33:33.729Z,45
2017-01-29T13:34:33.336Z,55
2017-01-29T13:35:33.682Z,95
2017-01-29T13:36:33.884Z,105
2017-01-29T13:37:33.910Z,85
2017-01-29T13:38:33.623Z,155
2017-01-29T13:39:33.995Z,120
2017-01-29T13:40:34.103Z,105
2017-01-29T13:41:33.640Z,95
2017-01-29T13:42:33.827Z,85
2017-01-29T13:43:33.832Z,85
2017-01-29T13:44:33.841Z,75
2017-01-29T13:45:33.847Z,70
2017-01-29T13:46:33.938Z,75
2017-01-29T13:47:33.238Z,60
2017-01-29T13:48:34.172Z,40
2017-01-29T13:49:33.477Z,70
2017-01-29T13:50:33.927Z,50
2017-01-29T13:51:33.593Z,55
2017-01-29T13:52:33.595Z,75
2017-01-29T13:53:33.950Z,50
2017-01-29T13:54:33.808Z,50
2017-01-29T13:55:33.909Z,60
2017-01-29T13:56:33.176Z,50
2017-01-29T13:57:33.971Z,45
2017-01-29T13:58:33.985Z,40
2017-01-29T13:59:33.995Z,35
2017-01-29T14:00:33.988Z,45
2017-01-29T14:01:34.101Z,45
2017-01-29T14:02:33.604Z,50
2017-01-29T14:03:34.092Z,35
2017-01-29T14:04:32.827Z,30
2017-01-29T14:05:34.022Z,30
2017-01-29T14:06:33.980Z,30
2017-01-29T14:07:33.748Z,55
2017-01-29T14:08:34.094Z,30
2017-01-29T14:09:34.051Z,30
2017-01-29T14:10:33.612Z,30
2017-01-29T14:11:33.814Z,30
2017-01-29T14:12:34.017Z,25
2017-01-29T14:13:33.727Z,25
2017-01-29T14:14:34.029Z,20
2017-01-29T14:15:34.042Z,20
2017-01-29T14:16:34.092Z,20
2017-01-29T14:17:33.653Z,15
2017-01-29T14:18:34.056Z,15
2017-01-29T14:19:34.361Z,15
2017-01-29T14:20:34.213Z,15
2017-01-29T14:21:33.729Z,15
2017-01-29T14:22:33.391Z,15
2017-01-29T14:23:33.742Z,15
2017-01-29T14:24:34.087Z,15
2017-01-29T14:25:34.252Z,15
2017-01-29T14:26:34.103Z,15
2017-01-29T14:27:34.213Z,15
2017-01-29T14:28:33.773Z,15
2017-01-29T14:29:34.346Z,15
2017-01-29T14:30:33.894Z,20
2017-01-29T14:31:34.391Z,20
2017-01-29T14:32:33.844Z,20
2017-01-29T14:33:33.406Z,20
2017-01-29T14:34:33.755Z,15
2017-01-29T14:35:33.766Z,15
2017-01-29T14:36:33.423Z,15